ADDS METAR Data INFO
IDs: Format: Raw Decoded Include TAF

Data at: 1132 UTC 29 May 2017

KAFO 291115Z AUTO 00000KT 10SM CLR 01/00 A3029 RMK AO2 TSNO
KAFO 291055Z AUTO 17003KT 10SM CLR 01/00 A3029 RMK AO2
KAFO 291035Z AUTO 20003KT 10SM CLR 01/00 A3029 RMK AO2 TSNO
KAFO 291015Z AUTO 17004KT 10SM CLR 02/00 A3029 RMK AO2 TSNO
KAFO 290955Z AUTO 00000KT 10SM CLR 02/00 A3029 RMK AO2 TSNO
KAFO 290935Z AUTO 18003KT 10SM CLR 02/00 A3029 RMK AO2 TSNO
KAFO 290915Z AUTO 16003KT 10SM CLR 03/01 A3029 RMK AO2 TSNO
KAFO 290855Z AUTO 00000KT 10SM CLR 03/01 A3029 RMK AO2
KAFO 290835Z AUTO 18003KT 10SM CLR 03/01 A3029 RMK AO2 TSNO
KAFO 290815Z AUTO 17004KT 10SM CLR 03/01 A3029 RMK AO2 TSNO
KAFO 290755Z AUTO 00000KT 10SM CLR 05/01 A3029 RMK AO2 TSNO
KAFO 290735Z AUTO 00000KT 10SM CLR 05/01 A3029 RMK AO2 TSNO
KAFO 290715Z AUTO 00000KT 10SM CLR 04/02 A3029 RMK AO2
KAFO 290655Z AUTO 00000KT 10SM CLR 05/02 A3029 RMK AO2
KAFO 290635Z AUTO 00000KT 10SM CLR 06/01 A3028 RMK AO2 TSNO
KAFO 290615Z AUTO 00000KT 10SM CLR 05/02 A3028 RMK AO2 TSNO
KAFO 290555Z AUTO 18006KT 10SM CLR 05/02 A3028 RMK AO2 TSNO
KAFO 290535Z AUTO 00000KT 10SM CLR 06/02 A3028 RMK AO2 TSNO
KAFO 290515Z AUTO 18005KT 10SM CLR 07/02 A3028 RMK AO2 TSNO
KAFO 290455Z AUTO 18003KT 10SM CLR 07/02 A3028 RMK AO2 TSNO
KAFO 290435Z AUTO 00000KT 10SM CLR 07/03 A3028 RMK AO2 TSNO
KAFO 290415Z AUTO 00000KT 10SM CLR 09/03 A3027 RMK AO2 TSNO
KAFO 290355Z AUTO 00000KT 10SM CLR 12/02 A3027 RMK AO2 TSNO
KAFO 290335Z AUTO 13003KT 10SM CLR 12/02 A3027 RMK AO2 TSNO
KAFO 290315Z AUTO 00000KT 10SM CLR 12/02 A3025 RMK AO2 TSNO
KAFO 290255Z AUTO 02003KT 10SM CLR 13/03 A3025 RMK AO2 TSNO
KAFO 290235Z AUTO 35003KT 10SM CLR 14/05 A3025 RMK AO2 TSNO
KAFO 290215Z AUTO 00000KT 10SM CLR 15/06 A3025 RMK AO2 TSNO
KAFO 290155Z AUTO 31003KT 10SM CLR 17/03 A3025 RMK AO2 TSNO
KAFO 290135Z AUTO 30004KT 10SM CLR 17/02 A3024 RMK AO2 TSNO
KAFO 290115Z AUTO 30003KT 10SM CLR 18/00 A3025 RMK AO2 TSNO
KAFO 290055Z AUTO 32003KT 10SM CLR 18/M01 A3025 RMK AO2 TSNO
KAFO 290035Z AUTO 34003KT 10SM CLR 18/M02 A3025 RMK AO2 TSNO
KAFO 290015Z AUTO 29004KT 10SM CLR 18/M02 A3025 RMK AO2 TSNO
KAFO 282355Z AUTO 26003KT 10SM CLR 19/M03 A3025 RMK AO2 TSNO
KAFO 282335Z AUTO 32003KT 10SM CLR 18/M03 A3027 RMK AO2 TSNO
KAFO 282315Z AUTO 36005KT 10SM CLR 18/M02 A3027 RMK AO2 TSNO
KAFO 282255Z AUTO 29003KT 10SM CLR 18/M02 A3027 RMK AO2 TSNO
KAFO 282235Z AUTO 34004KT 10SM CLR 19/M01 A3028 RMK AO2 TSNO
KAFO 282215Z AUTO 33004KT 10SM CLR 18/M01 A3028 RMK AO2 TSNO
KAFO 282155Z AUTO 29005KT 10SM CLR 18/00 A3028 RMK AO2 TSNO
KAFO 282135Z AUTO 00000KT 10SM CLR 18/00 A3029 RMK AO2 TSNO
KAFO 282115Z AUTO 29006KT 10SM CLR 18/00 A3029 RMK AO2 TSNO
KAFO 282055Z AUTO 29005KT 10SM CLR 17/00 A3030 RMK AO2 TSNO
KAFO 282035Z AUTO 35006KT 10SM CLR 17/00 A3030 RMK AO2 TSNO
KAFO 282015Z AUTO 30005KT 10SM CLR 17/01 A3031 RMK AO2 TSNO
KAFO 281955Z AUTO 33005KT 10SM CLR 17/01 A3031 RMK AO2 TSNO
KAFO 281935Z AUTO 30004KT 10SM CLR 17/M01 A3033 RMK AO2 TSNO
KAFO 281915Z AUTO 00000KT 10SM CLR 16/00 A3033 RMK AO2 TSNO
KAFO 281855Z AUTO 32003KT 10SM CLR 16/00 A3033 RMK AO2 TSNO
KAFO 281835Z AUTO 28005KT 10SM CLR 16/01 A3034 RMK AO2 TSNO
KAFO 281815Z AUTO 00000KT 10SM CLR 15/01 A3034 RMK AO2 TSNO
KAFO 281755Z AUTO 35003KT 10SM CLR 15/02 A3035 RMK AO2 TSNO
KAFO 281735Z AUTO 00000KT 10SM CLR 13/03 A3035 RMK AO2 TSNO
KAFO 281715Z AUTO 00000KT 10SM CLR 13/03 A3035 RMK AO2 TSNO
KAFO 281655Z AUTO 00000KT 10SM CLR 12/03 A3035 RMK AO2 TSNO
KAFO 281635Z AUTO 00000KT 10SM CLR 11/03 A3036 RMK AO2 TSNO
KAFO 281615Z AUTO 00000KT 10SM CLR 10/02 A3037 RMK AO2 TSNO
KAFO 281555Z AUTO 00000KT 10SM CLR 09/02 A3037 RMK AO2 TSNO
KAFO 281535Z AUTO 00000KT 10SM CLR 08/02 A3037 RMK AO2 TSNO
KAFO 281515Z AUTO 00000KT 10SM CLR 07/02 A3037 RMK AO2 TSNO
KAFO 281455Z AUTO 00000KT 10SM CLR 06/01 A3038 RMK AO2 TSNO
KAFO 281435Z AUTO 00000KT 10SM CLR 05/01 A3038 RMK AO2 TSNO
KAFO 281415Z AUTO 00000KT 10SM CLR 04/01 A3038 RMK AO2 TSNO
KAFO 281355Z AUTO 00000KT 10SM CLR 03/00 A3038 RMK AO2
KAFO 281335Z AUTO 00000KT 10SM CLR 02/00 A3038 RMK AO2 TSNO
KAFO 281315Z AUTO 00000KT 10SM CLR 01/00 A3037 RMK AO2 TSNO
KAFO 281255Z AUTO 20003KT 10SM CLR 00/00 A3037 RMK AO2 TSNO
KAFO 281235Z AUTO 17003KT 10SM CLR 00/M01 A3036 RMK AO2 TSNO
KAFO 281215Z AUTO 17004KT 10SM CLR 00/M01 A3036 RMK AO2 TSNO
KAFO 281155Z AUTO 00000KT 10SM CLR 00/M01 A3035 RMK AO2
KAFO 281135Z AUTO 00000KT 10SM CLR 00/M01 A3035 RMK AO2 TSNO
KAFO 281115Z AUTO 00000KT 10SM CLR 00/M01 A3035 RMK AO2 TSNO
KAFO 281055Z AUTO 00000KT 10SM CLR 00/M01 A3035 RMK AO2 TSNO
KAFO 281035Z AUTO 00000KT 10SM CLR 00/M01 A3035 RMK AO2 TSNO
KAFO 281015Z AUTO 17003KT 10SM CLR 00/00 A3035 RMK AO2 TSNO
KAFO 280955Z AUTO 00000KT 10SM CLR 00/00 A3035 RMK AO2
KAFO 280935Z AUTO 18003KT 10SM CLR 01/00 A3035 RMK AO2 TSNO
KAFO 280915Z AUTO 00000KT 10SM CLR 02/00 A3035 RMK AO2 TSNO
KAFO 280855Z AUTO 00000KT 10SM CLR 02/00 A3035 RMK AO2 TSNO
KAFO 280835Z AUTO 00000KT 10SM CLR 01/00 A3034 RMK AO2 TSNO
KAFO 280815Z AUTO 00000KT 10SM CLR 01/00 A3034 RMK AO2 TSNO
KAFO 280755Z AUTO 00000KT 10SM CLR 01/00 A3034 RMK AO2 TSNO
KAFO 280735Z AUTO 00000KT 10SM CLR 02/00 A3034 RMK AO2 TSNO
KAFO 280715Z AUTO 00000KT 10SM CLR 03/00 A3034 RMK AO2 TSNO
KAFO 280655Z AUTO 00000KT 10SM CLR 02/00 A3034 RMK AO2
KAFO 280635Z AUTO 00000KT 10SM CLR 03/01 A3033 RMK AO2
KAFO 280615Z AUTO 16003KT 10SM CLR 03/01 A3033 RMK AO2 TSNO
KAFO 280555Z AUTO 00000KT 10SM CLR 03/01 A3033 RMK AO2 TSNO
KAFO 280535Z AUTO 20006KT 10SM CLR 03/01 A3032 RMK AO2 TSNO
KAFO 280515Z AUTO 00000KT 10SM CLR 05/01 A3032 RMK AO2 TSNO
KAFO 280455Z AUTO 00000KT 10SM CLR 04/01 A3032 RMK AO2 TSNO
KAFO 280435Z AUTO 00000KT 10SM CLR 05/01 A3032 RMK AO2 TSNO
KAFO 280415Z AUTO 00000KT 10SM CLR 05/02 A3031 RMK AO2 TSNO
KAFO 280355Z AUTO 00000KT 10SM CLR 08/02 A3031 RMK AO2 TSNO
KAFO 280335Z AUTO 10SM CLR 07/03 A3030 RMK AO2 TSNO
KAFO 280315Z AUTO 00000KT 10SM CLR 09/02 A3029 RMK AO2 TSNO
KAFO 280255Z AUTO 29004KT 10SM CLR 09/04 A3029 RMK AO2 TSNO
KAFO 280235Z AUTO 00000KT 10SM CLR 11/02 A3028 RMK AO2 TSNO
KAFO 280215Z AUTO 00000KT 10SM CLR 12/02 A3028 RMK AO2 TSNO
KAFO 280155Z AUTO 00000KT 10SM CLR 13/02 A3028 RMK AO2 TSNO
KAFO 280135Z AUTO 32005KT 10SM SCT090 13/02 A3028 RMK AO2 TSNO
KAFO 280115Z AUTO 34005KT 10SM SCT090 13/01 A3028 RMK AO2 TSNO
KAFO 280055Z AUTO 34004KT 10SM SCT090 13/02 A3027 RMK AO2 TSNO
KAFO 280035Z AUTO 30003KT 10SM SCT090 13/02 A3027 RMK AO2 TSNO
KAFO 280015Z AUTO 33005KT 10SM SCT090 13/02 A3027 RMK AO2 TSNO
KAFO 272355Z AUTO 33007KT 10SM SCT090 14/00 A3027 RMK AO2 TSNO
KAFO 272335Z AUTO 34005KT 10SM BKN090 14/00 A3027 RMK AO2 TSNO


Page loaded:  11:32 UTC  |   04:32 AM Pacific  |   05:32 AM Mountain  |   06:32 AM Central  |   07:32 AM Eastern

 

ADVISORIES

FORECASTS

FORECASTS

OBSERVATIONS

USER TOOLS

ABOUT US